Time;durP1;ratioP1;P1;durP2;ratioP2;P2;SDS_P1;SDS_P2;PMS_P1;PMS_P2;Temp;Humidity;BMP_temperature;BMP_pressure;BME280_temperature;BME280_humidity;BME280_pressure;Samples;Min_cycle;Max_cycle;Signal;HPM_P1;HPM_P2
2024/02/09 00:00:40;;;;;;;;;;;;;;;1.61;100.00;98202.36;109452;1254;70382;-68
2024/02/09 00:03:10;;;;;;;;;;;;;;;1.26;100.00;98198.23;109412;1254;60700;-68
2024/02/09 00:05:38;;;;;;;;;;;;;;;1.18;100.00;98195.65;109463;1254;61850;-68
2024/02/09 00:08:06;;;;;;;;;;;;;;;1.41;100.00;98194.65;109440;1259;76610;-68
2024/02/09 00:10:36;;;;;;;;;;;;;;;1.30;100.00;98191.79;109361;1252;67646;-66
2024/02/09 00:13:05;;;;;;;;;;;;;;;1.63;100.00;98196.75;109610;1254;71454;-67
2024/02/09 00:15:33;;;;;;;;;;;;;;;1.70;100.00;98197.44;109239;1254;59986;-65
2024/02/09 00:18:02;;;;;;;;;;;;;;;1.70;100.00;98197.48;109617;1254;59060;-65
2024/02/09 00:20:31;;;;;;;;;;;;;;;1.59;100.00;98191.94;109640;1254;74954;-65
2024/02/09 00:22:59;;;;;;;;;;;;;;;1.61;100.00;98194.38;109626;1253;70417;-64
2024/02/09 00:25:27;;;;;;;;;;;;;;;1.59;100.00;98182.23;109186;1253;75000;-65
2024/02/09 00:27:54;;;;;;;;;;;;;;;1.63;100.00;98184.02;109523;1254;59518;-65
2024/02/09 00:30:24;;;;;;;;;;;;;;;1.64;100.00;98183.83;109360;1257;61654;-64
2024/02/09 00:32:53;;;;;;;;;;;;;;;1.59;100.00;98178.39;109361;1254;74601;-63
2024/02/09 00:35:23;;;;;;;;;;;;;;;1.52;100.00;98174.06;109387;1254;71037;-66
2024/02/09 00:38:00;;;;;;;;;;;;;;;1.54;100.00;98168.79;109393;1253;71938;-64
2024/02/09 00:40:33;;;;;;;;;;;;;;;1.57;100.00;98160.58;109248;1254;59519;-65
2024/02/09 00:43:01;;;;;;;;;;;;;;;1.41;100.00;98154.96;109391;1254;62145;-65
2024/02/09 00:45:30;;;;;;;;;;;;;;;1.34;100.00;98153.65;109423;1254;74642;-65
2024/02/09 00:48:00;;;;;;;;;;;;;;;1.33;100.00;98144.12;109373;1254;68707;-66
2024/02/09 00:50:30;;;;;;;;;;;;;;;1.30;100.00;98134.85;109361;1254;74548;-66
2024/02/09 00:53:04;;;;;;;;;;;;;;;1.35;100.00;98130.58;109267;1256;61014;-65
2024/02/09 00:55:32;;;;;;;;;;;;;;;1.33;100.00;98125.40;109151;1254;59231;-67
2024/02/09 00:58:00;;;;;;;;;;;;;;;1.38;100.00;98125.94;109317;1254;75111;-65
2024/02/09 01:00:32;;;;;;;;;;;;;;;1.40;100.00;98115.48;109319;1254;69033;-65
2024/02/09 01:03:04;;;;;;;;;;;;;;;1.52;100.00;98112.14;109277;1254;73115;-68
2024/02/09 01:05:32;;;;;;;;;;;;;;;1.75;100.00;98109.68;109263;1253;63233;-66
2024/02/09 01:08:01;;;;;;;;;;;;;;;1.83;100.00;98107.52;109475;1254;59196;-66
2024/02/09 01:10:31;;;;;;;;;;;;;;;1.73;100.00;98107.58;109520;1254;75608;-68
2024/02/09 02:46:45;;;;;;;;;;;;;;;1.67;100.00;98013.65;109622;1252;74232;-69
2024/02/09 03:05:50;;;;;;;;;;;;;;;1.59;100.00;97991.16;109414;1254;72581;-70
2024/02/09 03:08:19;;;;;;;;;;;;;;;1.57;100.00;97992.02;109384;1254;60287;-70
2024/02/09 03:10:50;;;;;;;;;;;;;;;1.58;100.00;97987.17;109329;1253;59055;-70
2024/02/09 03:13:17;;;;;;;;;;;;;;;1.64;100.00;97989.41;109610;1251;76893;-69
2024/02/09 03:15:45;;;;;;;;;;;;;;;1.67;100.00;97986.30;109639;1251;70462;-70
2024/02/09 03:18:17;;;;;;;;;;;;;;;1.62;100.00;97981.23;109622;1251;72586;-70
2024/02/09 03:20:45;;;;;;;;;;;;;;;1.67;100.00;97982.23;109511;1253;61698;-70
2024/02/09 03:23:17;;;;;;;;;;;;;;;1.65;100.00;97981.55;109612;1251;60037;-69
2024/02/09 03:25:44;;;;;;;;;;;;;;;1.64;100.00;97977.25;109549;1251;75109;-70
2024/02/09 03:28:14;;;;;;;;;;;;;;;1.69;100.00;97974.54;109562;1251;70106;-69
2024/02/09 03:30:42;;;;;;;;;;;;;;;1.68;100.00;97968.87;109635;1253;72794;-70
2024/02/09 03:33:11;;;;;;;;;;;;;;;1.72;100.00;97965.66;109587;1253;62219;-70
2024/02/09 03:35:39;;;;;;;;;;;;;;;1.69;100.00;97966.41;109607;1253;60987;-70
2024/02/09 03:38:07;;;;;;;;;;;;;;;1.73;100.00;97966.52;109621;1251;76030;-70
2024/02/09 03:40:34;;;;;;;;;;;;;;;1.75;100.00;97965.71;109546;1251;69139;-70
2024/02/09 03:43:02;;;;;;;;;;;;;;;1.80;100.00;97970.41;109569;1251;73444;-70
2024/02/09 03:45:29;;;;;;;;;;;;;;;1.79;100.00;97968.32;109569;1253;59535;-70
2024/02/09 03:47:57;;;;;;;;;;;;;;;1.80;100.00;97974.33;109446;1253;59193;-70
2024/02/09 03:50:24;;;;;;;;;;;;;;;1.71;100.00;97973.64;109514;1252;76962;-70
2024/02/09 03:52:52;;;;;;;;;;;;;;;1.78;100.00;97970.95;109459;1254;71088;-70
2024/02/09 03:55:19;;;;;;;;;;;;;;;1.72;100.00;97967.52;109300;1255;72425;-70
2024/02/09 03:57:47;;;;;;;;;;;;;;;1.75;100.00;97969.26;109114;1256;60547;-71
2024/02/09 04:00:15;;;;;;;;;;;;;;;1.76;100.00;97972.09;109300;1256;61084;-70
2024/02/09 04:02:45;;;;;;;;;;;;;;;1.75;100.00;97969.38;109279;1256;73093;-71
2024/02/09 04:05:16;;;;;;;;;;;;;;;1.68;100.00;97974.52;109310;1255;71080;-70
2024/02/09 04:07:45;;;;;;;;;;;;;;;1.66;100.00;97970.88;109252;1255;71771;-71
2024/02/09 04:10:12;;;;;;;;;;;;;;;1.65;100.00;97969.08;109282;1256;59993;-71
2024/02/09 04:13:00;;;;;;;;;;;;;;;1.71;100.00;97970.67;109295;1254;58981;-71
2024/02/09 04:15:28;;;;;;;;;;;;;;;1.88;100.00;97971.36;109390;1254;76005;-71
2024/02/09 04:17:57;;;;;;;;;;;;;;;2.04;100.00;97967.41;109394;1254;68220;-71
2024/02/09 04:20:26;;;;;;;;;;;;;;;1.93;100.00;97965.33;109283;1254;73886;-71
2024/02/09 04:22:54;;;;;;;;;;;;;;;1.72;100.00;97962.11;109291;1256;59677;-71
2024/02/09 04:25:21;;;;;;;;;;;;;;;1.89;100.00;97962.34;109392;1254;59729;-71
2024/02/09 04:27:51;;;;;;;;;;;;;;;1.98;100.00;97959.16;109575;1253;72919;-71
2024/02/09 04:30:21;;;;;;;;;;;;;;;1.99;100.00;97958.12;109570;1252;68929;-71
2024/02/09 04:32:49;;;;;;;;;;;;;;;1.91;100.00;97952.84;109592;1253;70757;-71
2024/02/09 04:35:17;;;;;;;;;;;;;;;1.85;100.00;97945.69;109190;1254;62232;-71
2024/02/09 04:37:45;;;;;;;;;;;;;;;1.86;100.00;97947.85;109586;1253;62103;-71
2024/02/09 04:40:13;;;;;;;;;;;;;;;1.68;100.00;97945.38;109553;1253;72817;-71
2024/02/09 04:42:40;;;;;;;;;;;;;;;1.73;100.00;97947.11;109557;1253;71050;-71
2024/02/09 04:45:08;;;;;;;;;;;;;;;1.66;100.00;97943.48;109196;1253;72634;-71
2024/02/09 04:47:36;;;;;;;;;;;;;;;1.52;100.00;97938.98;109550;1253;60059;-72
2024/02/09 04:50:04;;;;;;;;;;;;;;;1.61;100.00;97940.68;109447;1253;59862;-72
2024/02/09 04:52:31;;;;;;;;;;;;;;;1.47;100.00;97940.48;109453;1253;76920;-71
2024/02/09 04:54:59;;;;;;;;;;;;;;;1.58;100.00;97947.71;109516;1253;71164;-72
2024/02/09 04:57:27;;;;;;;;;;;;;;;1.69;100.00;97940.95;109548;1253;74208;-72
2024/02/09 04:59:55;;;;;;;;;;;;;;;1.63;100.00;97936.30;109084;1254;60533;-71
2024/02/09 05:02:22;;;;;;;;;;;;;;;1.62;100.00;97932.25;109312;1254;58942;-72
2024/02/09 05:04:50;;;;;;;;;;;;;;;1.65;100.00;97932.15;109326;1253;75569;-73
2024/02/09 05:07:17;;;;;;;;;;;;;;;1.59;100.00;97931.20;109499;1253;67838;-73
2024/02/09 05:09:45;;;;;;;;;;;;;;;1.17;100.00;97932.62;109486;1253;72578;-73
2024/02/09 05:12:12;;;;;;;;;;;;;;;1.02;100.00;97929.88;109568;1253;60729;-73
2024/02/09 05:14:40;;;;;;;;;;;;;;;1.13;100.00;97934.27;109396;1252;58952;-73
2024/02/09 05:17:07;;;;;;;;;;;;;;;1.06;100.00;97931.95;109507;1253;73901;-72
2024/02/09 05:19:36;;;;;;;;;;;;;;;1.36;100.00;97928.61;109308;1253;70876;-72
2024/02/09 05:22:04;;;;;;;;;;;;;;;1.45;100.00;97923.31;109264;1254;183463;-72
2024/02/09 05:24:33;;;;;;;;;;;;;;;1.51;100.00;97920.46;109521;1253;62893;-72
2024/02/09 05:27:00;;;;;;;;;;;;;;;1.33;100.00;97926.81;109407;1255;58983;-72
2024/02/09 05:29:28;;;;;;;;;;;;;;;1.34;100.00;97927.89;109455;1253;74177;-72
2024/02/09 05:31:57;;;;;;;;;;;;;;;1.40;100.00;97927.70;109302;1256;68532;-72
2024/02/09 05:34:25;;;;;;;;;;;;;;;1.41;100.00;97928.93;108987;1255;70941;-72
2024/02/09 05:36:54;;;;;;;;;;;;;;;1.45;100.00;97927.52;109110;1256;61046;-72
2024/02/09 05:39:21;;;;;;;;;;;;;;;1.38;100.00;97935.41;109290;1256;59045;-72
2024/02/09 05:41:49;;;;;;;;;;;;;;;1.30;100.00;97939.65;109174;1256;74506;-73
2024/02/09 05:44:16;;;;;;;;;;;;;;;1.41;100.00;97949.23;109284;1256;67470;-73
2024/02/09 05:46:44;;;;;;;;;;;;;;;1.43;100.00;97949.71;109033;1256;73456;-73
2024/02/09 05:49:11;;;;;;;;;;;;;;;1.31;100.00;97947.67;109014;1256;61417;-72
2024/02/09 05:51:39;;;;;;;;;;;;;;;1.29;100.00;97953.00;109259;1256;62156;-72
2024/02/09 05:54:06;;;;;;;;;;;;;;;1.44;100.00;97960.09;109069;1259;74666;-73
2024/02/09 05:56:34;;;;;;;;;;;;;;;1.48;100.00;97965.20;108999;1258;68056;-72
2024/02/09 05:59:04;;;;;;;;;;;;;;;1.57;100.00;97969.07;109110;1259;72728;-73
2024/02/09 06:01:34;;;;;;;;;;;;;;;1.52;100.00;97968.48;108980;1258;59518;-73
2024/02/09 06:04:01;;;;;;;;;;;;;;;1.42;100.00;97965.55;109117;1256;61399;-72
2024/02/09 06:06:29;;;;;;;;;;;;;;;1.27;100.00;97973.36;109125;1256;76299;-72
2024/02/09 06:08:58;;;;;;;;;;;;;;;1.07;100.00;97973.36;109142;1256;71091;-72
2024/02/09 06:11:25;;;;;;;;;;;;;;;1.21;100.00;97977.26;109136;1257;70853;-74
2024/02/09 06:13:53;;;;;;;;;;;;;;;1.10;100.00;97980.66;109085;1256;62941;-72
2024/02/09 06:16:22;;;;;;;;;;;;;;;1.20;100.00;97975.08;109168;1256;59417;-72
2024/02/09 06:18:49;;;;;;;;;;;;;;;1.63;100.00;97971.10;109341;1256;76783;-72
2024/02/09 06:21:18;;;;;;;;;;;;;;;1.64;100.00;97970.33;109158;1256;67166;-72
2024/02/09 06:23:46;;;;;;;;;;;;;;;1.66;100.00;97967.65;109162;1256;72917;-72
2024/02/09 06:26:15;;;;;;;;;;;;;;;1.53;100.00;97968.92;109393;1253;60315;-72
2024/02/09 06:28:46;;;;;;;;;;;;;;;1.56;100.00;97971.47;109444;1253;61976;-72
2024/02/09 06:31:29;;;;;;;;;;;;;;;1.60;100.00;97971.87;109455;1253;74931;-72
2024/02/09 06:33:58;;;;;;;;;;;;;;;1.73;100.00;97979.39;109415;1253;67442;-72
2024/02/09 06:36:26;;;;;;;;;;;;;;;1.69;100.00;97979.10;109435;1253;75194;-71
2024/02/09 06:38:54;;;;;;;;;;;;;;;1.70;100.00;97981.97;109435;1252;60010;-71
2024/02/09 06:41:22;;;;;;;;;;;;;;;1.70;100.00;97985.98;109430;1253;60293;-71
2024/02/09 06:43:51;;;;;;;;;;;;;;;1.58;100.00;97981.67;109217;1253;75328;-72
2024/02/09 06:46:19;;;;;;;;;;;;;;;1.64;100.00;97982.28;109448;1253;68349;-72
2024/02/09 06:48:48;;;;;;;;;;;;;;;1.73;100.00;97991.83;108646;1253;1002453;-71
2024/02/09 06:51:19;;;;;;;;;;;;;;;1.89;99.80;97995.14;109172;1253;61951;-72
2024/02/09 06:53:48;;;;;;;;;;;;;;;1.82;99.61;97988.61;109464;1253;61842;-72
2024/02/09 06:56:16;;;;;;;;;;;;;;;1.90;99.04;97982.45;109472;1253;74629;-72
2024/02/09 06:58:45;;;;;;;;;;;;;;;1.91;99.25;97986.66;109451;1253;67322;-72
2024/02/09 07:01:14;;;;;;;;;;;;;;;1.86;98.96;97977.08;109397;1253;73277;-72
2024/02/09 07:03:41;;;;;;;;;;;;;;;1.78;99.45;97975.73;109386;1254;61505;-72
2024/02/09 07:06:10;;;;;;;;;;;;;;;1.92;98.64;97978.05;109565;1253;59239;-72
2024/02/09 07:08:40;;;;;;;;;;;;;;;1.96;98.75;97982.00;109426;1252;75185;-71
2024/02/09 07:11:11;;;;;;;;;;;;;;;1.99;98.40;97976.38;109541;1253;70708;-72
2024/02/09 07:13:41;;;;;;;;;;;;;;;1.98;98.29;97968.73;109542;1253;75018;-71
2024/02/09 07:16:09;;;;;;;;;;;;;;;2.00;98.14;97964.00;109602;1253;60188;-72
2024/02/09 07:18:39;;;;;;;;;;;;;;;2.05;97.74;97961.08;109114;1252;59007;-72
2024/02/09 07:21:08;;;;;;;;;;;;;;;2.00;98.08;97957.24;109572;1252;74462;-72
2024/02/09 07:23:36;;;;;;;;;;;;;;;2.16;97.34;97953.88;109603;1253;67671;-72
2024/02/09 07:26:05;;;;;;;;;;;;;;;2.24;97.98;97954.88;109578;1253;75385;-72
2024/02/09 07:28:32;;;;;;;;;;;;;;;2.43;96.65;97953.42;109591;1253;59844;-72
2024/02/09 07:31:00;;;;;;;;;;;;;;;2.29;95.84;97961.40;109626;1252;58975;-72
2024/02/09 07:33:27;;;;;;;;;;;;;;;2.28;95.89;97960.64;109584;1254;75624;-72
2024/02/09 07:35:55;;;;;;;;;;;;;;;2.18;95.80;97955.29;109586;1253;68315;-72
2024/02/09 07:38:23;;;;;;;;;;;;;;;2.24;95.96;97958.24;109588;1253;74398;-72
2024/02/09 07:40:50;;;;;;;;;;;;;;;2.25;95.92;97969.33;109427;1253;59943;-72
2024/02/09 07:43:18;;;;;;;;;;;;;;;2.10;96.53;97967.20;109586;1253;60054;-72
2024/02/09 07:45:46;;;;;;;;;;;;;;;2.28;96.03;97972.92;109589;1253;75365;-72
2024/02/09 07:48:14;;;;;;;;;;;;;;;2.25;95.81;97976.36;109583;1253;70939;-72
2024/02/09 07:50:43;;;;;;;;;;;;;;;2.58;94.20;97977.50;109426;1254;72843;-72
2024/02/09 07:53:14;;;;;;;;;;;;;;;2.75;92.96;97981.42;109358;1253;63185;-73
2024/02/09 07:55:42;;;;;;;;;;;;;;;2.58;92.74;97977.51;109448;1253;62126;-72
2024/02/09 07:58:10;;;;;;;;;;;;;;;2.60;93.33;97982.57;109427;1253;76081;-72
2024/02/09 08:00:38;;;;;;;;;;;;;;;2.87;92.42;97986.17;109467;1253;69484;-72
2024/02/09 08:03:05;;;;;;;;;;;;;;;2.72;91.39;97981.86;109277;1253;73373;-72
2024/02/09 08:05:35;;;;;;;;;;;;;;;2.52;92.65;97983.39;109431;1254;60025;-72
2024/02/09 08:08:03;;;;;;;;;;;;;;;2.49;92.56;97988.80;109424;1253;58980;-73
2024/02/09 08:10:32;;;;;;;;;;;;;;;2.49;92.67;97985.95;109166;1256;74695;-72
2024/02/09 08:13:00;;;;;;;;;;;;;;;2.54;92.71;97990.68;109114;1256;69487;-72
2024/02/09 08:15:27;;;;;;;;;;;;;;;2.75;91.81;97982.69;109185;1256;75018;-72
2024/02/09 08:17:55;;;;;;;;;;;;;;;2.77;91.80;97977.86;109143;1256;60933;-72
2024/02/09 08:20:26;;;;;;;;;;;;;;;2.80;91.26;97983.68;109135;1256;59245;-72
2024/02/09 08:22:53;;;;;;;;;;;;;;;2.78;91.33;97975.64;109019;1256;76066;-72
2024/02/09 08:25:21;;;;;;;;;;;;;;;2.44;92.85;97985.21;108959;1256;68125;-72
2024/02/09 08:27:48;;;;;;;;;;;;;;;2.46;93.03;97992.88;109169;1256;73190;-72
2024/02/09 08:30:16;;;;;;;;;;;;;;;2.39;94.17;97994.83;109122;1256;60064;-72
2024/02/09 08:32:43;;;;;;;;;;;;;;;2.50;94.64;98000.30;109164;1256;58936;-73
2024/02/09 08:35:11;;;;;;;;;;;;;;;3.04;91.32;98006.77;109141;1256;73242;-73
2024/02/09 08:37:39;;;;;;;;;;;;;;;3.07;90.55;98010.42;109205;1256;68016;-73
2024/02/09 08:40:07;;;;;;;;;;;;;;;2.78;90.86;98004.63;109122;1256;72915;-72
2024/02/09 08:42:35;;;;;;;;;;;;;;;2.72;91.46;98010.06;109358;1253;62313;-71
2024/02/09 08:45:02;;;;;;;;;;;;;;;2.70;91.30;98016.11;109554;1253;59495;-72
2024/02/09 08:47:30;;;;;;;;;;;;;;;2.56;91.80;98010.69;109541;1253;75487;-71
2024/02/09 08:49:58;;;;;;;;;;;;;;;2.78;91.24;98013.55;109475;1253;70779;-71
2024/02/09 08:52:25;;;;;;;;;;;;;;;2.74;90.94;98021.96;109400;1254;72169;-72
2024/02/09 08:54:53;;;;;;;;;;;;;;;2.89;90.10;98016.39;109177;1254;59836;-71
2024/02/09 08:57:21;;;;;;;;;;;;;;;2.88;89.79;98015.19;109499;1253;61130;-73
2024/02/09 08:59:49;;;;;;;;;;;;;;;2.86;89.74;98022.10;109435;1253;76904;-72
2024/02/09 09:02:16;;;;;;;;;;;;;;;3.00;89.57;98021.52;109464;1253;68893;-71
2024/02/09 09:04:44;;;;;;;;;;;;;;;3.08;89.15;98026.61;109477;1253;72775;-71
2024/02/09 09:07:12;;;;;;;;;;;;;;;3.18;88.34;98034.61;109427;1254;61349;-72
2024/02/09 09:09:40;;;;;;;;;;;;;;;3.07;88.43;98038.54;109431;1253;58977;-72
2024/02/09 09:12:08;;;;;;;;;;;;;;;3.10;88.45;98036.55;109568;1253;73795;-72
2024/02/09 09:14:39;;;;;;;;;;;;;;;3.09;88.78;98030.88;109574;1252;69453;-73
2024/02/09 09:17:07;;;;;;;;;;;;;;;2.88;89.64;98027.63;109612;1252;72266;-73
2024/02/09 09:19:50;;;;;;;;;;;;;;;2.85;90.64;98032.83;109567;1252;59963;-72
2024/02/09 09:22:37;;;;;;;;;;;;;;;2.82;90.60;98039.52;109548;1252;62128;-73
2024/02/09 09:25:06;;;;;;;;;;;;;;;3.00;90.12;98038.95;109631;1253;75826;-72
2024/02/09 09:27:34;;;;;;;;;;;;;;;2.88;89.98;98031.29;109113;1253;67635;-72
2024/02/09 09:30:04;;;;;;;;;;;;;;;3.08;89.45;98031.71;109572;1253;72938;-72
2024/02/09 09:32:32;;;;;;;;;;;;;;;3.15;88.08;98030.80;109296;1256;61750;-73
2024/02/09 09:35:00;;;;;;;;;;;;;;;3.08;88.30;98032.02;109495;1253;58963;-74
2024/02/09 09:37:28;;;;;;;;;;;;;;;3.01;88.71;98039.13;109450;1253;74688;-73
2024/02/09 09:39:56;;;;;;;;;;;;;;;3.01;89.16;98035.59;109350;1259;67860;-73
2024/02/09 09:42:23;;;;;;;;;;;;;;;2.99;88.81;98036.86;109385;1254;73970;-72
2024/02/09 09:44:54;;;;;;;;;;;;;;;3.01;88.80;98029.26;109377;1256;59311;-72
2024/02/09 09:47:25;;;;;;;;;;;;;;;2.83;89.79;98027.13;109376;1254;62113;-72
2024/02/09 09:49:53;;;;;;;;;;;;;;;2.92;89.53;98029.17;109224;1255;75192;-72
2024/02/09 09:52:30;;;;;;;;;;;;;;;2.88;90.03;98035.63;109136;1255;69033;-72
2024/02/09 09:54:58;;;;;;;;;;;;;;;2.72;90.78;98039.35;109196;1256;71894;-72
2024/02/09 09:57:28;;;;;;;;;;;;;;;2.66;91.67;98031.74;109143;1259;59056;-72
2024/02/09 09:59:55;;;;;;;;;;;;;;;2.71;91.26;98043.09;109169;1255;61970;-73
2024/02/09 10:02:23;;;;;;;;;;;;;;;2.61;92.00;98044.09;109206;1257;76948;-72
2024/02/09 10:04:50;;;;;;;;;;;;;;;2.93;90.00;98041.17;108929;1259;66697;-72
2024/02/09 10:07:19;;;;;;;;;;;;;;;2.64;91.39;98046.00;109066;1257;73242;-72
2024/02/09 10:09:50;;;;;;;;;;;;;;;2.65;91.46;98046.02;109111;1256;62532;-73
2024/02/09 10:12:20;;;;;;;;;;;;;;;2.69;91.43;98045.60;109088;1256;61179;-71
2024/02/09 10:14:48;;;;;;;;;;;;;;;2.89;89.51;98038.24;109161;1256;75596;-72
2024/02/09 10:17:16;;;;;;;;;;;;;;;2.86;89.37;98033.05;109190;1256;70137;-71
2024/02/09 10:19:44;;;;;;;;;;;;;;;2.64;90.07;98045.15;109152;1256;73753;-70
2024/02/09 10:22:11;;;;;;;;;;;;;;;2.72;89.90;98044.44;109195;1256;61581;-70
2024/02/09 10:24:52;;;;;;;;;;;;;;;2.64;90.85;98047.91;109183;1256;60623;-70
2024/02/09 10:27:20;;;;;;;;;;;;;;;2.74;90.42;98045.90;109015;1260;74715;-72
2024/02/09 10:29:47;;;;;;;;;;;;;;;2.72;90.41;98047.20;109178;1256;70549;-72
2024/02/09 10:32:15;;;;;;;;;;;;;;;2.78;89.74;98045.11;109152;1256;72739;-72
2024/02/09 10:34:42;;;;;;;;;;;;;;;2.62;90.41;98040.02;109002;1256;62811;-72
2024/02/09 10:37:10;;;;;;;;;;;;;;;2.53;91.34;98042.27;109496;1253;60844;-71
2024/02/09 10:39:51;;;;;;;;;;;;;;;2.58;90.97;98041.61;109482;1253;74513;-72
2024/02/09 10:42:20;;;;;;;;;;;;;;;2.49;92.01;98034.89;109414;1253;67639;-72
2024/02/09 10:44:47;;;;;;;;;;;;;;;2.66;90.96;98032.99;109414;1253;70738;-72
2024/02/09 10:47:15;;;;;;;;;;;;;;;2.77;90.23;98030.90;109348;1258;62224;-70
2024/02/09 10:49:44;;;;;;;;;;;;;;;2.59;91.05;98031.19;109135;1256;59006;-71
2024/02/09 10:52:11;;;;;;;;;;;;;;;2.78;90.78;98029.13;109128;1256;75208;-70
2024/02/09 10:54:47;;;;;;;;;;;;;;;2.94;89.76;98034.84;109120;1256;67810;-71
2024/02/09 10:57:15;;;;;;;;;;;;;;;2.86;89.39;98025.70;109125;1256;75324;-71
2024/02/09 10:59:43;;;;;;;;;;;;;;;2.80;89.72;98032.38;109057;1257;61958;-71
2024/02/09 11:02:11;;;;;;;;;;;;;;;2.67;90.67;98038.80;109003;1256;59864;-71
2024/02/09 11:04:38;;;;;;;;;;;;;;;2.77;90.53;98045.27;109124;1256;73855;-71
2024/02/09 11:07:06;;;;;;;;;;;;;;;2.68;90.75;98046.39;109124;1256;68461;-71
2024/02/09 11:09:34;;;;;;;;;;;;;;;2.83;90.26;98045.16;109206;1255;72399;-71
2024/02/09 11:12:04;;;;;;;;;;;;;;;2.90;89.75;98046.37;109011;1256;63116;-71
2024/02/09 11:14:33;;;;;;;;;;;;;;;2.73;91.08;98047.06;109134;1254;59543;-71
2024/02/09 11:17:06;;;;;;;;;;;;;;;2.83;90.70;98046.58;109294;1254;72731;-71
2024/02/09 11:19:38;;;;;;;;;;;;;;;2.85;90.65;98047.24;109211;1254;69344;-71
2024/02/09 11:22:06;;;;;;;;;;;;;;;2.87;90.94;98048.65;109550;1253;72691;-71
2024/02/09 11:24:33;;;;;;;;;;;;;;;2.96;90.33;98056.75;109592;1254;61991;-71
2024/02/09 11:27:01;;;;;;;;;;;;;;;2.91;90.27;98059.12;109627;1254;59175;-70
2024/02/09 11:29:38;;;;;;;;;;;;;;;2.69;90.98;98058.53;109565;1254;76941;-71
2024/02/09 11:32:05;;;;;;;;;;;;;;;2.81;91.47;98061.77;109631;1252;67633;-71
2024/02/09 11:34:34;;;;;;;;;;;;;;;2.84;90.83;98060.23;109596;1253;72587;-70
2024/02/09 11:37:02;;;;;;;;;;;;;;;2.83;90.97;98061.95;109545;1253;61217;-70
2024/02/09 11:39:33;;;;;;;;;;;;;;;2.85;90.83;98062.51;109389;1252;59590;-70
2024/02/09 11:42:04;;;;;;;;;;;;;;;2.86;90.84;98058.17;109657;1254;73873;-70
2024/02/09 11:44:33;;;;;;;;;;;;;;;2.85;90.99;98060.56;109595;1253;68991;-70
2024/02/09 11:47:01;;;;;;;;;;;;;;;2.88;91.40;98063.46;109607;1252;74375;-70
2024/02/09 11:49:29;;;;;;;;;;;;;;;2.97;90.88;98057.89;109585;1253;61958;-71
2024/02/09 11:52:01;;;;;;;;;;;;;;;2.89;90.46;98066.81;109653;1252;59649;-71
2024/02/09 11:54:29;;;;;;;;;;;;;;;2.75;91.16;98075.23;109556;1254;75472;-71
2024/02/09 11:56:57;;;;;;;;;;;;;;;2.65;91.96;98076.27;109629;1253;67701;-71
2024/02/09 11:59:25;;;;;;;;;;;;;;;2.68;91.81;98071.39;109301;1253;73462;-71
2024/02/09 12:01:53;;;;;;;;;;;;;;;2.63;92.74;98076.23;109635;1254;61616;-71
2024/02/09 12:04:21;;;;;;;;;;;;;;;2.75;92.90;98092.67;109635;1254;58903;-72
2024/02/09 12:06:49;;;;;;;;;;;;;;;2.92;92.07;98092.31;109544;1253;77014;-72
2024/02/09 12:09:16;;;;;;;;;;;;;;;2.62;92.30;98081.63;109303;1252;71101;-72
2024/02/09 12:11:47;;;;;;;;;;;;;;;2.51;93.07;98088.96;109613;1254;71868;-72
2024/02/09 12:14:14;;;;;;;;;;;;;;;2.61;93.38;98088.61;109510;1253;60749;-72
2024/02/09 12:16:42;;;;;;;;;;;;;;;2.67;93.51;98086.43;109504;1253;59012;-72
2024/02/09 12:19:10;;;;;;;;;;;;;;;2.87;93.04;98089.70;109491;1253;74238;-71
2024/02/09 12:21:37;;;;;;;;;;;;;;;2.77;92.27;98085.70;109474;1253;67084;-72
2024/02/09 12:24:09;;;;;;;;;;;;;;;2.48;93.23;98077.17;109407;1253;72657;-71
2024/02/09 12:26:37;;;;;;;;;;;;;;;2.45;93.71;98078.71;109438;1254;59592;-72
2024/02/09 12:29:12;;;;;;;;;;;;;;;2.44;94.19;98078.23;109289;1254;60996;-72
2024/02/09 12:31:43;;;;;;;;;;;;;;;2.35;94.35;98076.95;109417;1254;76735;-71
2024/02/09 12:34:12;;;;;;;;;;;;;;;2.30;95.33;98082.48;109272;1254;67622;-71
2024/02/09 12:36:41;;;;;;;;;;;;;;;2.38;94.98;98084.33;109263;1254;74214;-72
2024/02/09 12:39:11;;;;;;;;;;;;;;;2.38;95.02;98081.34;109264;1256;61531;-71
2024/02/09 12:41:40;;;;;;;;;;;;;;;2.47;94.67;98085.29;109268;1255;59212;-71
2024/02/09 12:44:15;;;;;;;;;;;;;;;2.50;94.63;98082.59;109292;1254;74159;-71
2024/02/09 12:46:42;;;;;;;;;;;;;;;2.37;94.94;98074.39;109268;1254;66993;-71
2024/02/09 12:49:19;;;;;;;;;;;;;;;2.36;95.42;98074.37;109257;1257;74129;-72
2024/02/09 12:51:50;;;;;;;;;;;;;;;2.38;95.50;98074.20;109119;1255;61259;-71
2024/02/09 12:54:17;;;;;;;;;;;;;;;2.45;95.43;98073.16;109367;1254;58912;-71
2024/02/09 12:56:45;;;;;;;;;;;;;;;2.45;95.44;98078.88;109266;1256;73448;-71
2024/02/09 12:59:12;;;;;;;;;;;;;;;2.56;95.05;98081.88;109474;1253;67093;-70
2024/02/09 13:01:40;;;;;;;;;;;;;;;2.55;94.71;98079.91;109425;1255;71158;-71
2024/02/09 13:04:08;;;;;;;;;;;;;;;2.50;94.72;98078.76;109428;1255;61982;-71
2024/02/09 13:06:35;;;;;;;;;;;;;;;2.54;94.79;98094.88;109421;1253;58954;-70
2024/02/09 13:09:03;;;;;;;;;;;;;;;2.59;94.57;98096.25;109462;1253;75337;-71
2024/02/09 13:11:30;;;;;;;;;;;;;;;2.72;94.30;98098.65;109516;1253;66539;-71
2024/02/09 13:13:59;;;;;;;;;;;;;;;2.73;93.80;98096.29;109619;1253;71493;-71
2024/02/09 13:16:27;;;;;;;;;;;;;;;2.63;94.31;98091.35;109535;1254;62558;-71
2024/02/09 13:18:57;;;;;;;;;;;;;;;2.64;94.61;98096.66;109300;1253;59967;-71
2024/02/09 13:21:25;;;;;;;;;;;;;;;2.72;93.80;98097.27;109599;1252;74797;-71
2024/02/09 13:23:53;;;;;;;;;;;;;;;2.51;94.73;98095.55;109564;1252;70168;-71
2024/02/09 13:26:21;;;;;;;;;;;;;;;2.39;95.55;98087.20;109304;1254;71162;-71
2024/02/09 13:28:48;;;;;;;;;;;;;;;2.26;96.24;98087.90;109612;1253;61355;-71
2024/02/09 13:31:16;;;;;;;;;;;;;;;2.24;96.91;98084.97;109619;1254;59593;-70
2024/02/09 13:33:44;;;;;;;;;;;;;;;2.21;97.20;98075.90;109324;1253;76003;-71
2024/02/09 13:36:13;;;;;;;;;;;;;;;2.25;97.28;98068.92;109215;1253;70365;-70
2024/02/09 13:38:42;;;;;;;;;;;;;;;2.19;97.58;98068.87;109542;1254;72141;-71
2024/02/09 13:41:09;;;;;;;;;;;;;;;2.05;98.24;98073.98;109599;1253;61749;-70
2024/02/09 13:43:37;;;;;;;;;;;;;;;2.18;98.02;98087.01;109599;1253;59150;-70
2024/02/09 13:46:08;;;;;;;;;;;;;;;2.23;97.66;98091.88;109601;1252;73916;-70
2024/02/09 13:48:36;;;;;;;;;;;;;;;2.32;97.18;98103.16;109559;1253;67076;-71
2024/02/09 13:51:05;;;;;;;;;;;;;;;2.36;96.60;98113.30;109455;1253;71567;-70
2024/02/09 13:53:32;;;;;;;;;;;;;;;2.43;96.38;98121.48;109438;1253;63213;-71
2024/02/09 13:56:00;;;;;;;;;;;;;;;2.42;96.23;98131.69;109440;1253;60769;-71
2024/02/09 13:58:27;;;;;;;;;;;;;;;2.51;95.84;98133.25;109465;1253;75095;-71
2024/02/09 14:00:55;;;;;;;;;;;;;;;2.47;95.83;98132.41;109449;1253;70395;-71
2024/02/09 14:03:22;;;;;;;;;;;;;;;2.43;96.04;98128.95;108719;1253;1003028;-71
2024/02/09 14:05:50;;;;;;;;;;;;;;;2.39;96.72;98136.08;109387;1253;59603;-71
2024/02/09 14:08:20;;;;;;;;;;;;;;;2.32;97.02;98138.73;109440;1253;59059;-71
2024/02/09 14:10:47;;;;;;;;;;;;;;;2.25;96.99;98143.42;109554;1254;74027;-72
2024/02/09 14:13:15;;;;;;;;;;;;;;;2.25;97.74;98143.69;109656;1253;70072;-71
2024/02/09 14:15:49;;;;;;;;;;;;;;;2.43;97.39;98140.88;109560;1253;72506;-71
2024/02/09 14:18:18;;;;;;;;;;;;;;;2.38;96.96;98136.74;109598;1253;59644;-71
2024/02/09 14:20:47;;;;;;;;;;;;;;;2.27;97.22;98136.27;109593;1253;59095;-71
2024/02/09 14:23:14;;;;;;;;;;;;;;;2.18;98.62;98137.25;109612;1254;76183;-71
2024/02/09 14:25:44;;;;;;;;;;;;;;;2.16;98.60;98134.41;109635;1255;67557;-70
2024/02/09 14:28:12;;;;;;;;;;;;;;;2.06;98.71;98137.90;109542;1254;70458;-71
2024/02/09 14:30:41;;;;;;;;;;;;;;;2.05;99.23;98135.23;109426;1255;60328;-70
2024/02/09 14:33:09;;;;;;;;;;;;;;;2.03;99.45;98137.73;109353;1254;60759;-70
2024/02/09 14:35:37;;;;;;;;;;;;;;;2.09;99.29;98135.11;109390;1254;76280;-70
2024/02/09 14:38:04;;;;;;;;;;;;;;;2.06;99.72;98135.10;109368;1253;70302;-70
2024/02/09 14:40:32;;;;;;;;;;;;;;;1.98;99.89;98132.39;109365;1254;73202;-70